createdAt,value
2024-01-11T00:01:40.683Z,1
2024-01-11T00:03:40.578Z,1
2024-01-11T00:05:40.640Z,1
2024-01-11T00:07:44.297Z,1
2024-01-11T00:09:40.581Z,1
2024-01-11T00:11:40.312Z,1
2024-01-11T00:13:43.343Z,1
2024-01-11T00:15:40.543Z,1
2024-01-11T00:17:40.692Z,1
2024-01-11T00:19:40.599Z,1
2024-01-11T00:21:47.708Z,1
2024-01-11T00:23:40.674Z,1
2024-01-11T00:25:40.633Z,1
2024-01-11T00:27:41.114Z,1
2024-01-11T00:29:40.695Z,1
2024-01-11T00:31:40.086Z,1
2024-01-11T00:33:40.764Z,1
2024-01-11T00:35:44.846Z,1
2024-01-11T00:37:40.586Z,1
2024-01-11T00:39:40.717Z,1
2024-01-11T00:41:43.514Z,1
2024-01-11T00:43:40.528Z,1
2024-01-11T00:45:40.552Z,1
2024-01-11T00:47:40.774Z,1
2024-01-11T00:49:43.704Z,1
2024-01-11T00:51:40.664Z,1
2024-01-11T00:53:40.668Z,1
2024-01-11T00:55:40.551Z,1
2024-01-11T00:57:40.689Z,1
2024-01-11T00:59:40.735Z,1
2024-01-11T01:01:40.044Z,1
2024-01-11T01:03:40.641Z,1
2024-01-11T01:05:40.658Z,1
2024-01-11T01:07:43.433Z,1
2024-01-11T01:09:40.170Z,1
2024-01-11T01:11:40.158Z,1
2024-01-11T01:13:40.543Z,1
2024-01-11T01:15:44.530Z,1
2024-01-11T01:17:40.227Z,1
2024-01-11T01:19:40.757Z,1
2024-01-11T01:21:40.428Z,1
2024-01-11T01:23:40.729Z,1
2024-01-11T01:25:40.760Z,1
2024-01-11T01:27:40.659Z,1
2024-01-11T01:29:44.907Z,1
2024-01-11T01:31:40.563Z,1
2024-01-11T01:33:40.357Z,1
2024-01-11T01:35:41.631Z,1
2024-01-11T01:37:40.615Z,1
2024-01-11T01:39:40.674Z,1
2024-01-11T01:41:44.865Z,1
2024-01-11T01:43:40.643Z,1
2024-01-11T01:45:40.685Z,1
2024-01-11T01:47:43.651Z,1
2024-01-11T01:49:40.775Z,1
2024-01-11T01:51:40.711Z,1
2024-01-11T01:53:42.211Z,1
2024-01-11T01:55:40.681Z,1
2024-01-11T01:57:40.780Z,1
2024-01-11T01:59:42.048Z,1
2024-01-11T02:01:40.678Z,1
2024-01-11T02:03:40.688Z,1
2024-01-11T02:05:43.643Z,1
2024-01-11T02:07:40.713Z,1
2024-01-11T02:09:40.700Z,1
2024-01-11T02:11:42.093Z,1
2024-01-11T02:13:40.535Z,1
2024-01-11T02:15:40.587Z,1
2024-01-11T02:17:47.336Z,1
2024-01-11T02:19:40.696Z,1
2024-01-11T02:21:40.643Z,1
2024-01-11T02:23:45.075Z,1
2024-01-11T02:25:40.727Z,1
2024-01-11T02:27:40.598Z,1
2024-01-11T02:29:43.489Z,1
2024-01-11T02:31:40.696Z,1
2024-01-11T02:33:40.701Z,1
2024-01-11T02:35:44.022Z,1
2024-01-11T02:37:40.222Z,1
2024-01-11T02:39:40.724Z,1
2024-01-11T02:41:45.110Z,1
2024-01-11T02:43:40.705Z,1
2024-01-11T02:45:40.535Z,1
2024-01-11T02:47:39.616Z,1
2024-01-11T02:49:40.740Z,1
2024-01-11T02:51:43.638Z,1
2024-01-11T02:53:40.742Z,1
2024-01-11T02:55:40.837Z,1
2024-01-11T02:57:41.678Z,1
2024-01-11T02:59:40.849Z,1
2024-01-11T03:01:40.711Z,1
2024-01-11T03:03:43.788Z,1
2024-01-11T03:05:40.770Z,1
2024-01-11T03:07:40.609Z,1
2024-01-11T03:09:41.962Z,1
2024-01-11T03:11:40.865Z,1
2024-01-11T03:13:40.280Z,1
2024-01-11T03:15:41.962Z,1
2024-01-11T03:17:40.672Z,1
2024-01-11T03:19:40.294Z,1
2024-01-11T03:21:44.712Z,1
2024-01-11T03:23:40.279Z,1
2024-01-11T03:25:40.555Z,1
2024-01-11T03:27:45.349Z,1
2024-01-11T03:29:40.696Z,1
2024-01-11T03:31:43.803Z,1
2024-01-11T03:33:40.452Z,1
2024-01-11T03:35:40.288Z,1
2024-01-11T03:37:40.724Z,1
2024-01-11T03:39:40.953Z,1
2024-01-11T03:41:40.757Z,1
2024-01-11T03:43:45.623Z,1
2024-01-11T03:45:40.560Z,1
2024-01-11T03:47:40.822Z,1
2024-01-11T03:49:45.729Z,1
2024-01-11T03:51:40.735Z,1
2024-01-11T03:53:43.914Z,1
2024-01-11T03:55:40.780Z,1
2024-01-11T03:57:40.692Z,1
2024-01-11T03:59:40.779Z,1
2024-01-11T04:01:40.628Z,1
2024-01-11T04:03:39.312Z,1
2024-01-11T04:05:43.794Z,1
2024-01-11T04:07:40.738Z,1
2024-01-11T04:09:39.242Z,1
2024-01-11T04:11:40.792Z,1
2024-01-11T04:13:44.359Z,1
2024-01-11T04:15:40.611Z,1
2024-01-11T04:17:42.185Z,1
2024-01-11T04:19:40.660Z,1
2024-01-11T04:21:40.674Z,1
2024-01-11T04:23:40.912Z,1
2024-01-11T04:25:40.704Z,1
2024-01-11T04:27:40.713Z,1
2024-01-11T04:29:40.472Z,1
2024-01-11T04:31:40.778Z,1
2024-01-11T04:33:41.764Z,1
2024-01-11T04:35:40.888Z,1
2024-01-11T04:37:41.213Z,1
2024-01-11T04:39:40.853Z,1
2024-01-11T04:41:41.855Z,1
2024-01-11T04:43:40.269Z,1
2024-01-11T04:45:40.587Z,1
2024-01-11T04:47:40.973Z,1
2024-01-11T04:49:40.836Z,1
2024-01-11T04:51:40.814Z,1
2024-01-11T04:53:43.902Z,1
2024-01-11T04:55:39.525Z,1
2024-01-11T04:57:40.690Z,1
2024-01-11T04:59:40.805Z,1
2024-01-11T05:01:39.517Z,1
2024-01-11T05:03:43.812Z,1
2024-01-11T05:05:40.948Z,1
2024-01-11T05:07:40.767Z,1
2024-01-11T05:09:40.716Z,1
2024-01-11T05:11:40.910Z,1
2024-01-11T05:13:40.780Z,1
2024-01-11T05:15:40.297Z,1
2024-01-11T05:17:42.578Z,1
2024-01-11T05:19:40.725Z,1
2024-01-11T05:21:40.761Z,1
2024-01-11T05:23:40.754Z,1
2024-01-11T05:25:40.754Z,1
2024-01-11T05:27:40.830Z,1
2024-01-11T05:29:40.824Z,1
2024-01-11T05:31:40.831Z,1
2024-01-11T05:33:39.495Z,1
2024-01-11T05:35:40.878Z,1
2024-01-11T05:37:43.986Z,1
2024-01-11T05:39:40.830Z,1
2024-01-11T05:41:42.312Z,1
2024-01-11T05:43:40.770Z,1
2024-01-11T05:45:46.201Z,1
2024-01-11T05:47:40.485Z,1
2024-01-11T05:49:40.393Z,1
2024-01-11T05:51:40.804Z,1
2024-01-11T05:53:40.567Z,1
2024-01-11T05:55:41.433Z,1
2024-01-11T05:57:40.777Z,1
2024-01-11T05:59:40.896Z,1
2024-01-11T06:01:40.816Z,1
2024-01-11T06:03:40.878Z,1
2024-01-11T06:05:40.957Z,0
2024-01-11T06:07:40.345Z,0
2024-01-11T06:09:40.755Z,0
2024-01-11T06:11:41.298Z,0.1
2024-01-11T06:13:40.259Z,0.1
2024-01-11T06:15:40.777Z,0.1
2024-01-11T06:17:40.968Z,0.2
2024-01-11T06:19:40.292Z,0.3
2024-01-11T06:21:40.855Z,0.4
2024-01-11T06:23:40.960Z,0.5
2024-01-11T06:25:40.285Z,0.7
2024-01-11T06:27:40.791Z,1.2
2024-01-11T06:29:40.412Z,1.4
2024-01-11T06:31:39.258Z,1.8
2024-01-11T06:33:40.305Z,2.2
2024-01-11T06:35:40.971Z,3.2
2024-01-11T06:37:40.863Z,5
2024-01-11T06:39:43.816Z,7.4
2024-01-11T06:41:40.889Z,10.5
2024-01-11T06:43:40.871Z,14.9
2024-01-11T06:45:41.138Z,21.1
2024-01-11T06:47:41.076Z,30
2024-01-11T06:49:40.781Z,40.4
2024-01-11T06:51:40.263Z,51.9
2024-01-11T06:53:39.473Z,70.1
2024-01-11T06:55:40.797Z,90
2024-01-11T06:57:41.182Z,115.6
2024-01-11T06:59:41.100Z,141.2
2024-01-11T07:01:40.264Z,172.4
2024-01-11T07:03:40.805Z,200.3
2024-01-11T07:05:41.004Z,232.8
2024-01-11T07:07:43.957Z,270.4
2024-01-11T07:09:40.838Z,314.2
2024-01-11T07:11:40.954Z,365
2024-01-11T07:13:40.713Z,403.4
2024-01-11T07:15:40.830Z,468.7
2024-01-11T07:17:40.960Z,518
2024-01-11T07:19:42.805Z,601.8
2024-01-11T07:21:40.841Z,665.1
2024-01-11T07:23:40.406Z,735.1
2024-01-11T07:25:40.806Z,812.4
2024-01-11T07:27:40.432Z,897.8
2024-01-11T07:29:40.945Z,1043.1
2024-01-11T07:31:40.802Z,1152.9
2024-01-11T07:33:40.402Z,1274.1
2024-01-11T07:35:40.854Z,1408.1
2024-01-11T07:37:40.780Z,1556.2
2024-01-11T07:39:40.321Z,1636
2024-01-11T07:41:40.672Z,1808
2024-01-11T07:43:45.319Z,1998.2
2024-01-11T07:45:40.849Z,2100.6
2024-01-11T07:47:40.415Z,2321.6
2024-01-11T07:49:41.187Z,2440.6
2024-01-11T07:51:40.421Z,2697.3
2024-01-11T07:53:40.410Z,2835.6
2024-01-11T07:55:40.908Z,2981
2024-01-11T07:57:41.068Z,2981
2024-01-11T07:59:41.071Z,3294.5
2024-01-11T08:01:47.751Z,3463.4
2024-01-11T08:03:41.033Z,3641
2024-01-11T08:05:41.059Z,3641
2024-01-11T08:07:40.462Z,3827.6
2024-01-11T08:09:40.880Z,4023.9
2024-01-11T08:11:42.931Z,4230.2
2024-01-11T08:13:40.914Z,4447.1
2024-01-11T08:15:40.932Z,4675.1
2024-01-11T08:17:42.032Z,4675.1
2024-01-11T08:19:40.948Z,4914.8
2024-01-11T08:21:40.525Z,4914.8
2024-01-11T08:23:40.504Z,5166.8
2024-01-11T08:25:40.286Z,5431.7
2024-01-11T08:27:40.293Z,5710.1
2024-01-11T08:29:41.013Z,5710.1
2024-01-11T08:31:40.972Z,5710.1
2024-01-11T08:33:40.938Z,12088.4
2024-01-11T08:35:40.890Z,20952.2
2024-01-11T08:37:40.519Z,20952.2
2024-01-11T08:39:42.023Z,22026.5
2024-01-11T08:41:41.184Z,22026.5
2024-01-11T08:43:40.885Z,23155.8
2024-01-11T08:45:40.787Z,23155.8
2024-01-11T08:47:40.503Z,24343
2024-01-11T08:49:40.320Z,25591.1
2024-01-11T08:51:40.960Z,26903.2
2024-01-11T08:53:41.344Z,26903.2
2024-01-11T08:55:42.041Z,26903.2
2024-01-11T08:57:40.404Z,28282.5
2024-01-11T08:59:41.002Z,29732.6
2024-01-11T09:01:40.995Z,29732.6
2024-01-11T09:03:40.599Z,29732.6
2024-01-11T09:05:41.015Z,31257
2024-01-11T09:07:40.958Z,32859.6
2024-01-11T09:09:43.970Z,32859.6
2024-01-11T09:11:41.267Z,34544.4
2024-01-11T09:13:41.134Z,34544.4
2024-01-11T09:15:41.013Z,34544.4
2024-01-11T09:17:40.414Z,36315.5
2024-01-11T09:19:40.871Z,36315.5
2024-01-11T09:21:40.960Z,36315.5
2024-01-11T09:23:40.984Z,36315.5
2024-01-11T09:25:40.787Z,38177.4
2024-01-11T09:27:40.936Z,38177.4
2024-01-11T09:29:40.452Z,38177.4
2024-01-11T09:31:40.352Z,38177.4
2024-01-11T09:33:40.937Z,40134.8
2024-01-11T09:35:41.318Z,40134.8
2024-01-11T09:37:40.368Z,42192.6
2024-01-11T09:39:40.825Z,42192.6
2024-01-11T09:41:40.987Z,42192.6
2024-01-11T09:43:40.872Z,42192.6
2024-01-11T09:45:39.351Z,44355.9
2024-01-11T09:47:40.909Z,44355.9
2024-01-11T09:49:40.392Z,44355.9
2024-01-11T09:51:40.321Z,44355.9
2024-01-11T09:53:40.974Z,44355.9
2024-01-11T09:55:39.368Z,46630
2024-01-11T09:57:40.793Z,46630
2024-01-11T09:59:40.334Z,46630
2024-01-11T10:01:40.300Z,44355.9
2024-01-11T10:03:39.348Z,44355.9
2024-01-11T10:05:40.385Z,44355.9
2024-01-11T10:07:40.873Z,46630
2024-01-11T10:09:40.834Z,46630
2024-01-11T10:11:40.581Z,46630
2024-01-11T10:13:39.278Z,46630
2024-01-11T10:15:40.253Z,46630
2024-01-11T10:17:40.999Z,46630
2024-01-11T10:19:39.669Z,46630
2024-01-11T10:21:40.307Z,46630
2024-01-11T10:23:40.344Z,49020.8
2024-01-11T10:25:40.838Z,49020.8
2024-01-11T10:27:40.751Z,46630
2024-01-11T10:29:40.860Z,49020.8
2024-01-11T10:31:40.906Z,51534.2
2024-01-11T10:33:40.891Z,51534.2
2024-01-11T10:35:40.465Z,51534.2
2024-01-11T10:37:40.758Z,51534.2
2024-01-11T10:39:40.313Z,54176.4
2024-01-11T10:41:41.078Z,54176.4
2024-01-11T10:43:40.765Z,54176.4
2024-01-11T10:45:40.884Z,54176.4
2024-01-11T10:47:40.438Z,54176.4
2024-01-11T10:49:40.318Z,54176.4
2024-01-11T10:51:40.781Z,54176.4
2024-01-11T10:53:40.895Z,51534.2
2024-01-11T10:55:40.815Z,49020.8
2024-01-11T10:57:40.772Z,49020.8
2024-01-11T10:59:41.532Z,51534.2
2024-01-11T11:01:40.383Z,54176.4
2024-01-11T11:03:41.610Z,56954
2024-01-11T11:05:40.841Z,56954
2024-01-11T11:07:40.358Z,56954
2024-01-11T11:09:40.913Z,56954
2024-01-11T11:11:40.392Z,56954
2024-01-11T11:13:40.829Z,51534.2
2024-01-11T11:15:40.283Z,51534.2
2024-01-11T11:17:41.018Z,51534.2
2024-01-11T11:19:40.846Z,56954
2024-01-11T11:21:40.495Z,54176.4
2024-01-11T11:23:40.416Z,56954
2024-01-11T11:25:40.315Z,54176.4
2024-01-11T11:27:40.763Z,56954
2024-01-11T11:29:40.380Z,54176.4
2024-01-11T11:31:39.553Z,56954
2024-01-11T11:33:40.321Z,56954
2024-01-11T11:35:41.093Z,62944
2024-01-11T11:37:40.797Z,62944
2024-01-11T11:39:40.297Z,59874.1
2024-01-11T11:41:40.980Z,59874.1
2024-01-11T11:43:40.385Z,59874.1
2024-01-11T11:45:40.284Z,62944
2024-01-11T11:47:40.956Z,66171.2
2024-01-11T11:49:40.309Z,62944
2024-01-11T11:51:41.187Z,62944
2024-01-11T11:53:40.366Z,62944
2024-01-11T11:55:40.306Z,66171.2
2024-01-11T11:57:40.404Z,66171.2
2024-01-11T11:59:40.915Z,62944
2024-01-11T12:01:40.287Z,62944
2024-01-11T12:03:40.377Z,62944
2024-01-11T12:05:40.623Z,62944
2024-01-11T12:07:40.410Z,59874.1
2024-01-11T12:09:40.339Z,59874.1
2024-01-11T12:11:41.172Z,56954
2024-01-11T12:13:40.940Z,59874.1
2024-01-11T12:15:40.827Z,56954
2024-01-11T12:17:40.630Z,54176.4
2024-01-11T12:19:40.384Z,54176.4
2024-01-11T12:21:40.836Z,54176.4
2024-01-11T12:23:40.598Z,54176.4
2024-01-11T12:25:40.937Z,56954
2024-01-11T12:27:40.391Z,56954
2024-01-11T12:29:44.147Z,56954
2024-01-11T12:31:41.051Z,56954
2024-01-11T12:33:40.900Z,56954
2024-01-11T12:35:41.004Z,59874.1
2024-01-11T12:37:40.447Z,56954
2024-01-11T12:39:40.859Z,56954
2024-01-11T12:41:40.469Z,54176.4
2024-01-11T12:43:40.866Z,54176.4
2024-01-11T12:45:40.924Z,54176.4
2024-01-11T12:47:40.564Z,51534.2
2024-01-11T12:49:40.954Z,54176.4
2024-01-11T12:51:40.393Z,54176.4
2024-01-11T12:53:41.187Z,51534.2
2024-01-11T12:55:45.033Z,51534.2
2024-01-11T12:57:40.435Z,54176.4
2024-01-11T12:59:41.051Z,49020.8
2024-01-11T13:01:40.905Z,51534.2
2024-01-11T13:03:40.348Z,51534.2
2024-01-11T13:05:41.055Z,49020.8
2024-01-11T13:07:40.366Z,49020.8
2024-01-11T13:09:41.237Z,49020.8
2024-01-11T13:11:41.018Z,49020.8
2024-01-11T13:13:40.956Z,49020.8
2024-01-11T13:15:40.369Z,49020.8
2024-01-11T13:17:40.988Z,49020.8
2024-01-11T13:19:40.984Z,46630
2024-01-11T13:21:39.665Z,49020.8
2024-01-11T13:23:40.497Z,46630
2024-01-11T13:25:40.539Z,44355.9
2024-01-11T13:27:40.957Z,46630
2024-01-11T13:29:40.519Z,46630
2024-01-11T13:31:41.011Z,44355.9
2024-01-11T13:33:40.544Z,44355.9
2024-01-11T13:35:41.071Z,42192.6
2024-01-11T13:37:40.847Z,42192.6
2024-01-11T13:39:40.872Z,42192.6
2024-01-11T13:41:40.936Z,42192.6
2024-01-11T13:43:40.336Z,40134.8
2024-01-11T13:45:40.936Z,40134.8
2024-01-11T13:47:41.427Z,40134.8
2024-01-11T13:49:40.933Z,40134.8
2024-01-11T13:51:45.919Z,38177.4
2024-01-11T13:53:39.339Z,38177.4
2024-01-11T13:55:41.509Z,36315.5
2024-01-11T13:57:40.881Z,34544.4
2024-01-11T13:59:40.953Z,32859.6
2024-01-11T14:01:40.371Z,28282.5
2024-01-11T14:03:40.406Z,19930.4
2024-01-11T14:05:40.605Z,16317.6
2024-01-11T14:07:40.544Z,6974.4
2024-01-11T14:09:40.442Z,6002.9
2024-01-11T14:11:41.114Z,5710.1
2024-01-11T14:13:40.590Z,5431.7
2024-01-11T14:15:40.380Z,5166.8
2024-01-11T14:17:41.212Z,5166.8
2024-01-11T14:19:40.516Z,4914.8
2024-01-11T14:21:40.835Z,4914.8
2024-01-11T14:23:40.446Z,4675.1
2024-01-11T14:25:40.996Z,4675.1
2024-01-11T14:27:40.963Z,4447.1
2024-01-11T14:29:41.080Z,4230.2
2024-01-11T14:31:40.409Z,4023.9
2024-01-11T14:33:40.929Z,3641
2024-01-11T14:35:41.011Z,3294.5
2024-01-11T14:37:40.708Z,3641
2024-01-11T14:39:40.407Z,3463.4
2024-01-11T14:41:40.630Z,3463.4
2024-01-11T14:43:40.870Z,3294.5
2024-01-11T14:45:40.911Z,3294.5
2024-01-11T14:47:41.032Z,3133.8
2024-01-11T14:49:40.431Z,2981
2024-01-11T14:51:40.397Z,2835.6
2024-01-11T14:53:40.418Z,2697.3
2024-01-11T14:55:41.002Z,2565.7
2024-01-11T14:57:41.354Z,2321.6
2024-01-11T14:59:40.460Z,2208.3
2024-01-11T15:01:40.451Z,2100.6
2024-01-11T15:03:40.852Z,1998.2
2024-01-11T15:05:40.533Z,1808
2024-01-11T15:07:40.840Z,1719.9
2024-01-11T15:09:41.972Z,1556.2
2024-01-11T15:11:40.720Z,1480.3
2024-01-11T15:13:40.820Z,1339.4
2024-01-11T15:15:40.800Z,1274.1
2024-01-11T15:17:40.729Z,1152.9
2024-01-11T15:19:41.046Z,1043.1
2024-01-11T15:21:43.200Z,943.9
2024-01-11T15:23:40.500Z,854.1
2024-01-11T15:25:40.854Z,699.2
2024-01-11T15:27:40.835Z,632.7
2024-01-11T15:29:40.611Z,544.6
2024-01-11T15:31:40.946Z,492.7
2024-01-11T15:33:40.521Z,424.1
2024-01-11T15:35:40.985Z,383.8
2024-01-11T15:37:40.824Z,330.3
2024-01-11T15:39:40.945Z,284.3
2024-01-11T15:41:39.724Z,257.2
2024-01-11T15:43:40.377Z,221.4
2024-01-11T15:45:40.878Z,181.3
2024-01-11T15:47:39.601Z,156
2024-01-11T15:49:39.729Z,127.7
2024-01-11T15:51:40.876Z,104.6
2024-01-11T15:53:40.910Z,85.6
2024-01-11T15:55:40.453Z,66.7
2024-01-11T15:57:40.911Z,51.9
2024-01-11T15:59:41.019Z,40.4
2024-01-11T16:01:46.497Z,30
2024-01-11T16:03:40.859Z,22.2
2024-01-11T16:05:40.928Z,15.6
2024-01-11T16:07:40.915Z,11
2024-01-11T16:09:40.866Z,7.8
2024-01-11T16:11:39.537Z,5.5
2024-01-11T16:13:40.864Z,3.9
2024-01-11T16:15:40.983Z,2.6
2024-01-11T16:17:41.123Z,1.9
2024-01-11T16:19:40.569Z,1.3
2024-01-11T16:21:40.759Z,0.9
2024-01-11T16:23:41.154Z,0.7
2024-01-11T16:25:40.491Z,0.4
2024-01-11T16:27:40.394Z,0.3
2024-01-11T16:29:40.467Z,0.3
2024-01-11T16:31:40.969Z,0.2
2024-01-11T16:33:40.960Z,0.1
2024-01-11T16:35:44.687Z,0.1
2024-01-11T16:37:40.872Z,0.1
2024-01-11T16:39:40.521Z,0
2024-01-11T16:41:41.009Z,0
2024-01-11T16:43:41.018Z,0
2024-01-11T16:45:40.957Z,0
2024-01-11T16:47:40.949Z,0
2024-01-11T16:49:40.910Z,1
2024-01-11T16:51:41.070Z,1
2024-01-11T16:53:40.429Z,1
2024-01-11T16:55:40.968Z,1
2024-01-11T16:57:40.890Z,1
2024-01-11T16:59:40.969Z,1
2024-01-11T17:01:41.068Z,1
2024-01-11T17:03:40.473Z,1
2024-01-11T17:05:40.945Z,1
2024-01-11T17:07:41.005Z,1
2024-01-11T17:09:40.893Z,1
2024-01-11T17:11:41.037Z,1
2024-01-11T17:13:40.482Z,1
2024-01-11T17:15:40.917Z,1
2024-01-11T17:17:40.960Z,1
2024-01-11T17:19:40.654Z,1
2024-01-11T17:21:41.238Z,1
2024-01-11T17:23:40.825Z,1
2024-01-11T17:25:42.390Z,1
2024-01-11T17:27:40.755Z,1
2024-01-11T17:29:41.742Z,1
2024-01-11T17:31:41.195Z,1
2024-01-11T17:33:39.800Z,1
2024-01-11T17:35:41.381Z,1
2024-01-11T17:37:40.727Z,1
2024-01-11T17:39:40.842Z,1
2024-01-11T17:41:41.343Z,1
2024-01-11T17:43:41.228Z,1
2024-01-11T17:45:40.511Z,1
2024-01-11T17:47:41.363Z,1
2024-01-11T17:49:41.159Z,1
2024-01-11T17:51:40.784Z,1
2024-01-11T17:53:41.307Z,1
2024-01-11T17:55:41.166Z,1
2024-01-11T17:57:40.667Z,1
2024-01-11T17:59:41.337Z,1
2024-01-11T18:01:41.220Z,1
2024-01-11T18:03:41.332Z,1
2024-01-11T18:05:42.982Z,1
2024-01-11T18:07:40.650Z,1
2024-01-11T18:09:41.193Z,1
2024-01-11T18:11:41.411Z,1
2024-01-11T18:13:41.314Z,1
2024-01-11T18:15:40.801Z,1
2024-01-11T18:17:41.325Z,1
2024-01-11T18:19:41.231Z,1
2024-01-11T18:21:41.212Z,1
2024-01-11T18:23:40.076Z,1
2024-01-11T18:25:41.143Z,1
2024-01-11T18:27:42.790Z,1
2024-01-11T18:29:41.286Z,1
2024-01-11T18:31:41.205Z,1
2024-01-11T18:33:41.803Z,1
2024-01-11T18:35:41.307Z,1
2024-01-11T18:37:41.182Z,1
2024-01-11T18:39:41.190Z,1
2024-01-11T18:41:40.834Z,1
2024-01-11T18:43:41.307Z,1
2024-01-11T18:45:41.233Z,1
2024-01-11T18:47:40.927Z,1
2024-01-11T18:49:41.306Z,1
2024-01-11T18:51:40.787Z,1
2024-01-11T18:53:41.396Z,1
2024-01-11T18:55:41.123Z,1
2024-01-11T18:57:41.165Z,1
2024-01-11T18:59:41.327Z,1
2024-01-11T19:01:41.221Z,1
2024-01-11T19:03:41.449Z,1
2024-01-11T19:05:41.021Z,1
2024-01-11T19:07:41.251Z,1
2024-01-11T19:09:41.215Z,1
2024-01-11T19:11:41.256Z,1
2024-01-11T19:13:39.952Z,1
2024-01-11T19:15:40.846Z,1
2024-01-11T19:17:41.475Z,1
2024-01-11T19:19:41.331Z,1
2024-01-11T19:21:41.193Z,1
2024-01-11T19:23:41.575Z,1
2024-01-11T19:25:41.191Z,1
2024-01-11T19:27:41.212Z,1
2024-01-11T19:29:39.884Z,1
2024-01-11T19:31:41.267Z,1
2024-01-11T19:33:42.858Z,1
2024-01-11T19:35:41.253Z,1
2024-01-11T19:37:40.713Z,1
2024-01-11T19:39:40.767Z,1
2024-01-11T19:41:41.526Z,1
2024-01-11T19:43:45.231Z,1
2024-01-11T19:45:40.985Z,1
2024-01-11T19:47:40.689Z,1
2024-01-11T19:49:40.572Z,1
2024-01-11T19:51:41.075Z,1
2024-01-11T19:53:41.169Z,1
2024-01-11T19:55:41.219Z,1
2024-01-11T19:57:41.727Z,1
2024-01-11T19:59:41.016Z,1
2024-01-11T20:01:40.576Z,1
2024-01-11T20:03:40.755Z,1
2024-01-11T20:05:39.764Z,1
2024-01-11T20:07:41.374Z,1
2024-01-11T20:09:39.977Z,1
2024-01-11T20:11:41.352Z,1
2024-01-11T20:13:41.370Z,1
2024-01-11T20:15:41.385Z,1
2024-01-11T20:17:41.323Z,1
2024-01-11T20:19:41.336Z,1
2024-01-11T20:21:41.318Z,1
2024-01-11T20:23:39.783Z,1
2024-01-11T20:25:39.769Z,1
2024-01-11T20:27:41.261Z,1
2024-01-11T20:29:41.329Z,1
2024-01-11T20:31:41.225Z,1
2024-01-11T20:33:40.135Z,1
2024-01-11T20:35:41.352Z,1
2024-01-11T20:37:41.262Z,1
2024-01-11T20:39:40.895Z,1
2024-01-11T20:41:39.809Z,1
2024-01-11T20:43:41.319Z,1
2024-01-11T20:45:41.331Z,1
2024-01-11T20:47:39.845Z,1
2024-01-11T20:49:40.571Z,1
2024-01-11T20:51:41.004Z,1
2024-01-11T20:53:40.473Z,1
2024-01-11T20:55:40.420Z,1
2024-01-11T20:57:40.954Z,1
2024-01-11T20:59:41.059Z,1
2024-01-11T21:01:40.982Z,1
2024-01-11T21:03:41.058Z,1
2024-01-11T21:05:41.073Z,1
2024-01-11T21:07:40.931Z,1
2024-01-11T21:09:40.558Z,1
2024-01-11T21:11:41.271Z,1
2024-01-11T21:13:39.485Z,1
2024-01-11T21:15:40.705Z,1
2024-01-11T21:17:43.499Z,1
2024-01-11T21:19:39.471Z,1
2024-01-11T21:21:41.476Z,1
2024-01-11T21:23:41.471Z,1
2024-01-11T21:25:41.308Z,1
2024-01-11T21:27:41.255Z,1
2024-01-11T21:29:41.403Z,1
2024-01-11T21:31:39.819Z,1
2024-01-11T21:33:41.235Z,1
2024-01-11T21:35:41.328Z,1
2024-01-11T21:37:41.232Z,1
2024-01-11T21:39:41.371Z,1
2024-01-11T21:41:41.880Z,1
2024-01-11T21:43:41.199Z,1
2024-01-11T21:45:41.353Z,1
2024-01-11T21:47:41.083Z,1
2024-01-11T21:49:40.878Z,1
2024-01-11T21:51:41.250Z,1
2024-01-11T21:53:39.929Z,1
2024-01-11T21:55:41.277Z,1
2024-01-11T21:57:41.219Z,1
2024-01-11T21:59:40.970Z,1
2024-01-11T22:01:40.894Z,1
2024-01-11T22:03:41.311Z,1
2024-01-11T22:05:40.966Z,1
2024-01-11T22:07:41.296Z,1
2024-01-11T22:09:43.203Z,1
2024-01-11T22:11:41.037Z,1
2024-01-11T22:13:40.989Z,1
2024-01-11T22:15:39.500Z,1
2024-01-11T22:17:41.111Z,1
2024-01-11T22:19:41.066Z,1
2024-01-11T22:21:41.010Z,1
2024-01-11T22:23:40.601Z,1
2024-01-11T22:25:40.560Z,1
2024-01-11T22:27:41.051Z,1
2024-01-11T22:29:41.288Z,1
2024-01-11T22:31:41.412Z,1
2024-01-11T22:33:40.895Z,1
2024-01-11T22:35:41.312Z,1
2024-01-11T22:37:41.421Z,1
2024-01-11T22:39:41.430Z,1
2024-01-11T22:41:41.322Z,1
2024-01-11T22:43:41.373Z,1
2024-01-11T22:45:41.704Z,1
2024-01-11T22:47:41.427Z,1
2024-01-11T22:49:41.333Z,1
2024-01-11T22:51:41.195Z,1
2024-01-11T22:53:39.811Z,1
2024-01-11T22:55:42.788Z,1
2024-01-11T22:57:40.444Z,1
2024-01-11T22:59:41.016Z,1
2024-01-11T23:01:40.597Z,1
2024-01-11T23:03:40.492Z,1
2024-01-11T23:05:40.575Z,1
2024-01-11T23:07:40.574Z,1
2024-01-11T23:09:41.302Z,1
2024-01-11T23:11:45.451Z,1
2024-01-11T23:13:40.980Z,1
2024-01-11T23:15:40.420Z,1
2024-01-11T23:17:41.198Z,1
2024-01-11T23:19:40.450Z,1
2024-01-11T23:21:40.961Z,1
2024-01-11T23:23:41.254Z,1
2024-01-11T23:25:40.897Z,1
2024-01-11T23:27:41.008Z,1
2024-01-11T23:29:41.241Z,1
2024-01-11T23:31:40.914Z,1
2024-01-11T23:33:41.147Z,1
2024-01-11T23:35:41.016Z,1
2024-01-11T23:37:39.510Z,1
2024-01-11T23:39:40.506Z,1
2024-01-11T23:41:40.971Z,1
2024-01-11T23:43:41.021Z,1
2024-01-11T23:45:40.540Z,1
2024-01-11T23:47:40.769Z,1
2024-01-11T23:49:41.394Z,1
2024-01-11T23:51:41.084Z,1
2024-01-11T23:53:41.052Z,1
2024-01-11T23:55:40.489Z,1
2024-01-11T23:57:40.996Z,1
2024-01-11T23:59:40.581Z,1
